Terminal Aerodrome Forecast
Issued by NWS Omaha/Valley, NE

Home | Current Version | Previous Version | Text Only | Print | Product List | Glossary Off
Versions: 1 2 3 4 5 6 7 8 9 10 11 12 13 14 15 16 17 18 19 20 21 22 23 24 25 26 27 28 29 30

610
FTUS43 KOAX 261724
TAFOFK
TAF
KOFK 261724Z 2618/2718 03010KT P6SM FEW250
     FM270200 06005KT P6SM SKC
     FM270600 13004KT P6SM SKC
     FM271300 16009KT P6SM FEW250
     FM271500 16014G22KT P6SM SCT200=

USA.gov is the U.S. government's official web portal to all federal, state and local government web resources and services.